createdAt,value
2022-09-12T00:01:47.411Z,12.23
2022-09-12T00:04:13.728Z,12.20
2022-09-12T00:06:40.059Z,12.15
2022-09-12T00:09:09.459Z,12.16
2022-09-12T00:11:40.800Z,12.11
2022-09-12T00:14:08.471Z,12.24
2022-09-12T00:16:36.872Z,12.23
2022-09-12T00:19:05.087Z,12.14
2022-09-12T00:21:33.899Z,12.12
2022-09-12T00:24:00.283Z,12.10
2022-09-12T00:26:26.849Z,12.12
2022-09-12T00:28:53.164Z,12.06
2022-09-12T00:31:23.378Z,12.06
2022-09-12T00:33:50.011Z,12.08
2022-09-12T00:36:22.143Z,12.08
2022-09-12T00:38:49.271Z,12.10
2022-09-12T00:41:28.484Z,12.04
2022-09-12T00:43:58.148Z,11.89
2022-09-12T00:46:44.649Z,11.74
2022-09-12T00:49:15.873Z,11.75
2022-09-12T00:51:49.468Z,11.85
2022-09-12T00:54:25.350Z,11.76
2022-09-12T00:56:54.774Z,11.69
2022-09-12T00:59:29.300Z,11.66
2022-09-12T01:01:56.295Z,11.60
2022-09-12T01:04:27.050Z,11.57
2022-09-12T01:06:56.004Z,11.54
2022-09-12T01:09:23.438Z,11.55
2022-09-12T01:11:51.595Z,11.58
2022-09-12T01:14:18.807Z,11.60
2022-09-12T01:16:46.875Z,11.48
2022-09-12T01:19:50.751Z,11.43
2022-09-12T01:22:47.879Z,11.41
2022-09-12T01:25:28.499Z,11.48
2022-09-12T01:28:28.841Z,11.37
2022-09-12T01:31:17.852Z,11.39
2022-09-12T01:33:56.584Z,11.38
2022-09-12T01:36:47.980Z,11.25
2022-09-12T01:39:38.609Z,11.20
2022-09-12T01:42:18.389Z,11.12
2022-09-12T01:45:11.415Z,11.16
2022-09-12T01:47:43.572Z,11.23
2022-09-12T01:50:24.650Z,11.19
2022-09-12T01:53:00.327Z,11.18
2022-09-12T01:55:36.923Z,11.07
2022-09-12T01:58:26.221Z,11.04
2022-09-12T02:01:05.823Z,11.02
2022-09-12T02:04:01.088Z,11.08
2022-09-12T02:06:36.435Z,11.04
2022-09-12T02:09:08.897Z,11.11
2022-09-12T02:11:40.975Z,11.22
2022-09-12T02:14:12.514Z,11.15
2022-09-12T02:16:51.608Z,11.01
2022-09-12T02:19:28.705Z,10.94
2022-09-12T02:22:01.362Z,10.94
2022-09-12T02:24:31.651Z,10.95
2022-09-12T02:27:04.867Z,10.95
2022-09-12T02:29:31.294Z,10.89
2022-09-12T02:32:01.487Z,10.84
2022-09-12T02:34:39.619Z,10.81
2022-09-12T02:37:14.927Z,10.84
2022-09-12T02:39:45.115Z,10.89
2022-09-12T02:42:12.250Z,10.98
2022-09-12T02:44:38.750Z,10.94
2022-09-12T02:47:10.567Z,10.99
2022-09-12T02:49:37.055Z,10.91
2022-09-12T02:52:03.870Z,10.89
2022-09-12T02:54:31.021Z,10.84
2022-09-12T02:56:57.424Z,10.78
2022-09-12T02:59:24.882Z,10.80
2022-09-12T03:02:15.237Z,10.79
2022-09-12T03:04:59.802Z,10.70
2022-09-12T03:08:03.186Z,10.68
2022-09-12T03:10:38.411Z,10.71
2022-09-12T03:13:28.862Z,10.72
2022-09-12T03:16:40.266Z,10.67
2022-09-12T03:19:38.735Z,10.66
2022-09-12T03:22:16.544Z,10.72
2022-09-12T03:25:02.967Z,10.73
2022-09-12T03:27:41.326Z,10.74
2022-09-12T03:30:08.519Z,10.90
2022-09-12T03:32:47.087Z,10.88
2022-09-12T03:35:14.943Z,10.92
2022-09-12T03:37:41.420Z,11.01
2022-09-12T03:40:09.780Z,10.91
2022-09-12T03:42:36.135Z,10.94
2022-09-12T03:45:02.466Z,10.91
2022-09-12T03:47:28.782Z,10.89
2022-09-12T03:49:55.090Z,10.81
2022-09-12T03:52:21.384Z,10.83
2022-09-12T03:54:47.666Z,10.78
2022-09-12T03:57:13.989Z,10.76
2022-09-12T03:59:40.436Z,10.69
2022-09-12T04:02:06.835Z,10.72
2022-09-12T04:04:33.190Z,10.69
2022-09-12T04:06:59.470Z,10.71
2022-09-12T04:09:25.848Z,10.58
2022-09-12T04:11:52.133Z,10.59
2022-09-12T04:14:18.466Z,10.55
2022-09-12T04:16:44.839Z,10.51
2022-09-12T04:19:12.082Z,10.49
2022-09-12T04:21:38.382Z,10.51
2022-09-12T04:24:04.946Z,10.46
2022-09-12T04:26:31.306Z,10.41
2022-09-12T04:28:58.141Z,10.37
2022-09-12T04:31:25.573Z,10.45
2022-09-12T04:33:57.507Z,10.39
2022-09-12T04:36:24.788Z,10.29
2022-09-12T04:38:52.018Z,10.35
2022-09-12T04:41:25.673Z,10.25
2022-09-12T04:43:54.569Z,10.20
2022-09-12T04:46:21.345Z,10.28
2022-09-12T04:48:50.515Z,10.28
2022-09-12T04:51:22.517Z,10.24
2022-09-12T04:53:51.545Z,10.23
2022-09-12T04:56:19.703Z,10.26
2022-09-12T04:58:46.471Z,10.31
2022-09-12T05:01:18.439Z,10.37
2022-09-12T05:03:46.515Z,10.49
2022-09-12T05:06:16.822Z,10.48
2022-09-12T05:08:43.462Z,10.48
2022-09-12T05:11:22.730Z,10.49
2022-09-12T05:13:50.983Z,10.55
2022-09-12T05:16:18.714Z,10.60
2022-09-12T05:18:45.810Z,10.70
2022-09-12T05:21:14.088Z,10.76
2022-09-12T05:23:41.000Z,10.81
2022-09-12T05:26:08.371Z,10.86
2022-09-12T05:28:36.880Z,10.93
2022-09-12T05:31:07.477Z,11.03
2022-09-12T05:33:37.710Z,11.12
2022-09-12T05:36:06.305Z,11.22
2022-09-12T05:38:35.161Z,11.19
2022-09-12T05:41:25.120Z,11.14
2022-09-12T05:43:56.380Z,11.25
2022-09-12T05:46:26.089Z,11.26
2022-09-12T05:48:56.121Z,11.37
2022-09-12T05:51:28.271Z,11.41
2022-09-12T05:53:59.846Z,11.50
2022-09-12T05:56:28.841Z,11.51
2022-09-12T05:59:04.102Z,11.61
2022-09-12T06:01:32.170Z,11.76
2022-09-12T06:04:01.172Z,11.98
2022-09-12T06:06:29.044Z,12.23
2022-09-12T06:09:00.554Z,12.70
2022-09-12T06:11:29.507Z,13.43
2022-09-12T06:13:57.967Z,13.78
2022-09-12T06:16:27.604Z,14.00
2022-09-12T06:18:56.419Z,14.06
2022-09-12T06:21:24.397Z,14.44
2022-09-12T06:23:51.105Z,14.43
2022-09-12T06:26:18.488Z,14.88
2022-09-12T06:28:45.196Z,14.69
2022-09-12T06:31:18.090Z,14.76
2022-09-12T06:33:46.996Z,15.02
2022-09-12T06:36:20.111Z,15.17
2022-09-12T06:38:46.955Z,14.83
2022-09-12T06:41:13.492Z,15.18
2022-09-12T06:43:41.640Z,15.36
2022-09-12T06:46:09.295Z,15.11
2022-09-12T06:48:40.986Z,15.61
2022-09-12T06:51:13.634Z,15.79
2022-09-12T06:53:40.885Z,15.79
2022-09-12T06:56:10.773Z,15.49
2022-09-12T06:58:37.918Z,15.62
2022-09-12T07:01:08.982Z,15.75
2022-09-12T07:03:36.279Z,16.04
2022-09-12T07:06:10.747Z,16.23
2022-09-12T07:08:38.498Z,16.23
2022-09-12T07:11:20.601Z,16.02
2022-09-12T07:13:49.528Z,15.84
2022-09-12T07:16:19.620Z,16.00
2022-09-12T07:18:51.745Z,16.29
2022-09-12T07:21:18.546Z,16.57
2022-09-12T07:23:45.010Z,16.75
2022-09-12T07:26:13.121Z,16.98
2022-09-12T07:28:40.103Z,17.00
2022-09-12T07:31:10.733Z,16.89
2022-09-12T07:33:37.707Z,17.06
2022-09-12T07:36:06.802Z,17.13
2022-09-12T07:38:33.202Z,17.43
2022-09-12T07:40:59.542Z,17.45
2022-09-12T07:43:25.817Z,17.55
2022-09-12T07:45:58.462Z,17.70
2022-09-12T07:48:24.810Z,17.57
2022-09-12T07:51:01.320Z,17.44
2022-09-12T07:53:32.725Z,17.79
2022-09-12T07:55:59.018Z,17.84
2022-09-12T07:58:25.471Z,18.17
2022-09-12T08:00:51.762Z,18.21
2022-09-12T08:03:18.125Z,18.11
2022-09-12T08:05:44.596Z,18.28
2022-09-12T08:08:10.904Z,18.64
2022-09-12T08:10:37.272Z,18.89
2022-09-12T08:13:03.938Z,19.07
2022-09-12T08:15:30.338Z,19.12
2022-09-12T08:17:56.805Z,19.44
2022-09-12T08:20:27.701Z,19.75
2022-09-12T08:22:54.642Z,19.92
2022-09-12T08:25:20.940Z,20.06
2022-09-12T08:27:47.209Z,20.02
2022-09-12T08:30:14.043Z,19.77
2022-09-12T08:32:40.352Z,19.70
2022-09-12T08:35:06.904Z,19.56
2022-09-12T08:37:33.211Z,19.60
2022-09-12T08:39:59.576Z,19.74
2022-09-12T08:42:43.923Z,19.89
2022-09-12T08:45:20.238Z,20.01
2022-09-12T08:47:47.422Z,19.79
2022-09-12T08:50:18.483Z,20.08
2022-09-12T08:53:06.182Z,20.09
2022-09-12T08:55:38.478Z,20.41
2022-09-12T08:58:13.635Z,20.28
2022-09-12T09:01:10.849Z,19.76
2022-09-12T09:03:49.572Z,20.17
2022-09-12T09:06:50.184Z,20.21
2022-09-12T09:09:24.879Z,20.54
2022-09-12T09:12:20.259Z,20.53
2022-09-12T09:15:06.342Z,20.65
2022-09-12T09:17:45.382Z,20.54
2022-09-12T09:20:28.615Z,20.67
2022-09-12T09:23:07.822Z,20.60
2022-09-12T09:25:47.383Z,20.74
2022-09-12T09:28:21.836Z,20.93
2022-09-12T09:30:48.462Z,21.23
2022-09-12T09:33:23.828Z,21.58
2022-09-12T09:36:03.156Z,21.62
2022-09-12T09:38:47.019Z,21.53
2022-09-12T09:41:41.927Z,21.56
2022-09-12T09:46:39.785Z,21.63
2022-09-12T09:49:07.454Z,21.64
2022-09-12T09:51:40.262Z,21.69
2022-09-12T09:54:24.301Z,21.63
2022-09-12T09:56:50.929Z,21.77
2022-09-12T09:59:30.842Z,21.94
2022-09-12T10:02:12.506Z,21.76
2022-09-12T10:04:57.004Z,21.94
2022-09-12T10:07:24.967Z,22.03
2022-09-12T10:10:14.877Z,21.68
2022-09-12T10:12:41.708Z,22.03
2022-09-12T10:15:17.190Z,22.13
2022-09-12T10:17:46.044Z,22.17
2022-09-12T10:20:38.754Z,22.18
2022-09-12T10:23:33.968Z,22.11
2022-09-12T10:26:02.502Z,22.47
2022-09-12T10:28:34.510Z,22.63
2022-09-12T10:31:00.911Z,22.52
2022-09-12T10:33:27.630Z,22.58
2022-09-12T10:35:55.075Z,22.72
2022-09-12T10:38:25.694Z,22.60
2022-09-12T10:40:58.966Z,22.54
2022-09-12T10:43:25.203Z,22.64
2022-09-12T10:45:51.555Z,22.53
2022-09-12T10:48:30.992Z,22.49
2022-09-12T10:51:01.363Z,22.51
2022-09-12T10:53:34.485Z,22.58
2022-09-12T10:56:09.277Z,22.49
2022-09-12T10:59:06.246Z,22.37
2022-09-12T11:01:32.615Z,22.40
2022-09-12T11:04:20.292Z,22.33
2022-09-12T11:07:08.352Z,22.29
2022-09-12T11:09:52.420Z,22.38
2022-09-12T11:12:39.264Z,22.71
2022-09-12T11:15:11.535Z,22.81
2022-09-12T11:17:46.913Z,22.91
2022-09-12T11:20:19.136Z,22.82
2022-09-12T11:23:33.097Z,22.93
2022-09-12T11:26:34.195Z,22.76
2022-09-12T11:29:16.755Z,23.01
2022-09-12T11:32:04.591Z,23.05
2022-09-12T11:35:17.450Z,23.07
2022-09-12T11:38:08.177Z,22.85
2022-09-12T11:40:48.201Z,22.79
2022-09-12T11:43:29.812Z,22.98
2022-09-12T11:46:02.487Z,23.08
2022-09-12T11:48:44.142Z,23.39
2022-09-12T11:51:43.959Z,23.44
2022-09-12T11:54:39.700Z,23.28
2022-09-12T11:57:16.659Z,23.07
2022-09-12T12:00:14.188Z,22.38
2022-09-12T12:03:16.342Z,22.85
2022-09-12T12:05:55.180Z,23.22
2022-09-12T12:08:23.870Z,23.32
2022-09-12T12:10:59.016Z,23.31
2022-09-12T12:13:33.042Z,23.51
2022-09-12T12:16:04.541Z,23.68
2022-09-12T12:18:33.158Z,23.68
2022-09-12T12:21:39.849Z,23.78
2022-09-12T12:24:08.902Z,23.64
2022-09-12T12:26:41.059Z,23.37
2022-09-12T12:29:51.413Z,23.49
2022-09-12T12:32:17.644Z,23.53
2022-09-12T12:34:45.301Z,23.46
2022-09-12T12:37:20.609Z,23.73
2022-09-12T12:39:46.968Z,23.86
2022-09-12T12:42:34.959Z,23.75
2022-09-12T12:45:26.358Z,23.78
2022-09-12T12:47:57.322Z,23.84
2022-09-12T12:50:26.918Z,23.83
2022-09-12T12:52:59.876Z,23.94
2022-09-12T12:55:58.447Z,23.80
2022-09-12T12:58:39.237Z,23.79
2022-09-12T13:01:18.153Z,23.76
2022-09-12T13:03:52.585Z,23.80
2022-09-12T13:06:37.479Z,23.79
2022-09-12T13:09:24.418Z,23.65
2022-09-12T13:12:04.998Z,23.55
2022-09-12T13:14:43.194Z,23.71
2022-09-12T13:17:46.107Z,23.73
2022-09-12T13:20:27.169Z,23.85
2022-09-12T13:22:54.588Z,23.65
2022-09-12T13:25:23.322Z,23.58
2022-09-12T13:28:05.055Z,23.74
2022-09-12T13:30:37.774Z,23.79
2022-09-12T13:33:28.811Z,23.90
2022-09-12T13:36:25.580Z,24.03
2022-09-12T13:39:13.731Z,24.08
2022-09-12T13:42:10.811Z,24.02
2022-09-12T13:44:45.561Z,24.11
2022-09-12T13:47:27.691Z,24.17
2022-09-12T13:49:55.267Z,24.20
2022-09-12T13:52:29.552Z,24.10
2022-09-12T13:54:58.031Z,24.13
2022-09-12T13:57:30.739Z,24.31
2022-09-12T13:59:58.755Z,24.27
2022-09-12T14:02:27.912Z,24.34
2022-09-12T14:04:55.508Z,24.46
2022-09-12T14:07:25.530Z,24.31
2022-09-12T14:09:58.127Z,24.36
2022-09-12T14:12:40.319Z,24.23
2022-09-12T14:15:15.662Z,24.13
2022-09-12T14:17:49.370Z,24.16
2022-09-12T14:20:16.130Z,24.27
2022-09-12T14:22:42.691Z,24.30
2022-09-12T14:25:17.687Z,24.23
2022-09-12T14:27:48.616Z,24.27
2022-09-12T14:30:29.847Z,24.18
2022-09-12T14:33:11.498Z,24.01
2022-09-12T14:35:43.736Z,24.05
2022-09-12T14:38:16.062Z,24.00
2022-09-12T14:40:45.911Z,23.95
2022-09-12T14:43:24.924Z,24.25
2022-09-12T14:46:18.778Z,24.17
2022-09-12T14:48:56.179Z,24.07
2022-09-12T14:51:27.762Z,24.09
2022-09-12T14:53:54.499Z,24.18
2022-09-12T14:56:22.324Z,23.99
2022-09-12T14:58:48.787Z,24.01
2022-09-12T15:01:15.118Z,23.80
2022-09-12T15:03:52.185Z,23.93
2022-09-12T15:06:27.806Z,24.03
2022-09-12T15:08:55.811Z,24.13
2022-09-12T15:11:22.331Z,24.16
2022-09-12T15:13:48.919Z,24.07
2022-09-12T15:16:15.751Z,23.94
2022-09-12T15:18:42.944Z,23.81
2022-09-12T15:21:13.820Z,23.75
2022-09-12T15:23:44.453Z,23.59
2022-09-12T15:26:14.493Z,23.49
2022-09-12T15:28:40.872Z,23.52
2022-09-12T15:31:13.357Z,23.48
2022-09-12T15:33:39.785Z,23.50
2022-09-12T15:36:13.679Z,23.56
2022-09-12T15:38:39.963Z,23.59
2022-09-12T15:41:11.282Z,23.58
2022-09-12T15:43:37.590Z,23.52
2022-09-12T15:46:03.947Z,23.32
2022-09-12T15:48:30.250Z,23.25
2022-09-12T15:50:57.574Z,23.14
2022-09-12T15:53:23.868Z,23.07
2022-09-12T15:55:50.142Z,23.11
2022-09-12T15:58:16.439Z,22.99
2022-09-12T16:00:42.747Z,22.85
2022-09-12T16:03:29.090Z,22.83
2022-09-12T16:05:57.878Z,22.88
2022-09-12T16:08:24.804Z,22.83
2022-09-12T16:10:55.780Z,22.90
2022-09-12T16:13:23.299Z,22.84
2022-09-12T16:15:50.015Z,22.79
2022-09-12T16:18:16.450Z,22.85
2022-09-12T16:20:43.066Z,22.84
2022-09-12T16:23:11.880Z,22.80
2022-09-12T16:25:39.120Z,22.67
2022-09-12T16:28:06.206Z,22.64
2022-09-12T16:30:33.401Z,22.54
2022-09-12T16:32:59.745Z,22.40
2022-09-12T16:35:26.047Z,22.32
2022-09-12T16:37:52.423Z,22.24
2022-09-12T16:40:18.800Z,22.19
2022-09-12T16:42:46.101Z,22.13
2022-09-12T16:45:12.908Z,22.06
2022-09-12T16:47:39.603Z,21.89
2022-09-12T16:50:06.568Z,21.77
2022-09-12T16:52:35.835Z,21.56
2022-09-12T16:55:02.113Z,21.63
2022-09-12T16:57:28.379Z,21.61
2022-09-12T16:59:54.676Z,21.60
2022-09-12T17:02:21.024Z,21.57
2022-09-12T17:04:47.349Z,21.47
2022-09-12T17:07:13.623Z,21.35
2022-09-12T17:09:39.896Z,21.27
2022-09-12T17:12:06.418Z,21.16
2022-09-12T17:14:32.704Z,21.09
2022-09-12T17:16:58.994Z,21.03
2022-09-12T17:19:26.924Z,20.94
2022-09-12T17:21:53.485Z,20.90
2022-09-12T17:24:20.140Z,20.84
2022-09-12T17:26:46.536Z,20.75
2022-09-12T17:29:13.703Z,20.69
2022-09-12T17:31:41.189Z,20.63
2022-09-12T17:34:07.671Z,20.53
2022-09-12T17:36:33.958Z,20.45
2022-09-12T17:39:02.527Z,20.33
2022-09-12T17:41:29.997Z,20.20
2022-09-12T17:43:57.562Z,20.11
2022-09-12T17:46:26.252Z,20.00
2022-09-12T17:48:54.276Z,19.90
2022-09-12T17:51:22.256Z,19.77
2022-09-12T17:53:48.691Z,19.65
2022-09-12T17:56:15.087Z,19.51
2022-09-12T17:58:41.399Z,19.49
2022-09-12T18:01:12.427Z,19.37
2022-09-12T18:03:38.732Z,19.31
2022-09-12T18:06:05.159Z,19.28
2022-09-12T18:08:31.679Z,19.21
2022-09-12T18:11:04.120Z,19.10
2022-09-12T18:13:32.336Z,19.11
2022-09-12T18:16:04.063Z,19.03
2022-09-12T18:18:30.426Z,18.92
2022-09-12T18:20:56.707Z,19.03
2022-09-12T18:23:23.020Z,19.02
2022-09-12T18:25:49.311Z,18.95
2022-09-12T18:28:15.627Z,18.87
2022-09-12T18:30:41.928Z,18.79
2022-09-12T18:33:08.256Z,18.63
2022-09-12T18:35:37.822Z,18.61
2022-09-12T18:38:04.115Z,18.57
2022-09-12T18:40:30.419Z,18.59
2022-09-12T18:42:56.704Z,18.54
2022-09-12T18:45:23.025Z,18.42
2022-09-12T18:47:49.309Z,18.35
2022-09-12T18:50:15.602Z,18.39
2022-09-12T18:52:41.886Z,18.32
2022-09-12T18:55:08.643Z,18.12
2022-09-12T18:57:34.935Z,18.15
2022-09-12T19:00:01.995Z,18.11
2022-09-12T19:02:28.291Z,18.01
2022-09-12T19:04:54.598Z,18.02
2022-09-12T19:07:20.901Z,17.87
2022-09-12T19:09:47.208Z,17.76
2022-09-12T19:12:13.582Z,17.63
2022-09-12T19:14:39.864Z,17.65
2022-09-12T19:17:06.154Z,17.57
2022-09-12T19:19:32.542Z,17.43
2022-09-12T19:21:58.822Z,17.47
2022-09-12T19:24:25.235Z,17.45
2022-09-12T19:26:51.531Z,17.37
2022-09-12T19:29:18.353Z,17.25
2022-09-12T19:31:45.499Z,17.14
2022-09-12T19:34:12.623Z,17.10
2022-09-12T19:36:47.670Z,17.04
2022-09-12T19:39:15.663Z,16.97
2022-09-12T19:41:42.073Z,16.97
2022-09-12T19:44:08.756Z,16.91
2022-09-12T19:46:35.120Z,16.94
2022-09-12T19:49:01.450Z,16.87
2022-09-12T19:51:27.756Z,16.83
2022-09-12T19:53:54.120Z,16.81
2022-09-12T19:56:21.105Z,16.80
2022-09-12T19:58:53.510Z,16.80
2022-09-12T20:01:23.181Z,16.59
2022-09-12T20:03:50.532Z,16.62
2022-09-12T20:06:17.910Z,16.73
2022-09-12T20:08:44.941Z,16.73
2022-09-12T20:11:14.390Z,16.72
2022-09-12T20:13:40.998Z,16.67
2022-09-12T20:16:09.388Z,16.70
2022-09-12T20:18:35.994Z,16.65
2022-09-12T20:21:13.497Z,16.60
2022-09-12T20:23:40.046Z,16.65
2022-09-12T20:26:06.759Z,16.63
2022-09-12T20:28:33.147Z,16.60
2022-09-12T20:31:04.726Z,16.47
2022-09-12T20:33:31.404Z,16.41
2022-09-12T20:36:06.186Z,16.45
2022-09-12T20:38:32.462Z,16.26
2022-09-12T20:41:01.867Z,16.31
2022-09-12T20:43:28.157Z,16.30
2022-09-12T20:45:54.550Z,16.32
2022-09-12T20:48:20.901Z,16.24
2022-09-12T20:50:47.174Z,16.23
2022-09-12T20:53:14.499Z,16.19
2022-09-12T20:55:40.777Z,16.15
2022-09-12T20:58:07.075Z,16.15
2022-09-12T21:00:33.361Z,16.13
2022-09-12T21:02:59.655Z,16.10
2022-09-12T21:05:25.937Z,16.11
2022-09-12T21:07:52.243Z,16.08
2022-09-12T21:10:18.543Z,16.04
2022-09-12T21:12:44.840Z,16.04
2022-09-12T21:15:11.131Z,16.02
2022-09-12T21:17:37.422Z,16.07
2022-09-12T21:20:06.905Z,16.15
2022-09-12T21:22:35.587Z,16.13
2022-09-12T21:25:01.866Z,16.07
2022-09-12T21:27:28.168Z,16.07
2022-09-12T21:29:54.825Z,16.02
2022-09-12T21:32:21.475Z,16.03
2022-09-12T21:34:47.831Z,16.04
2022-09-12T21:37:14.147Z,16.00
2022-09-12T21:39:40.888Z,15.99
2022-09-12T21:42:07.539Z,15.95
2022-09-12T21:44:33.870Z,16.03
2022-09-12T21:47:00.179Z,16.06
2022-09-12T21:49:26.457Z,16.04
2022-09-12T21:51:52.755Z,16.02
2022-09-12T21:54:19.056Z,16.02
2022-09-12T21:56:45.349Z,16.00
2022-09-12T21:59:11.647Z,15.87
2022-09-12T22:01:38.028Z,15.81
2022-09-12T22:04:04.345Z,15.77
2022-09-12T22:06:30.622Z,15.77
2022-09-12T22:08:56.911Z,15.77
2022-09-12T22:11:23.193Z,15.70
2022-09-12T22:13:49.667Z,15.59
2022-09-12T22:16:16.133Z,15.59
2022-09-12T22:18:42.484Z,15.51
2022-09-12T22:21:12.825Z,15.44
2022-09-12T22:23:39.438Z,15.36
2022-09-12T22:26:05.782Z,15.34
2022-09-12T22:28:32.091Z,15.34
2022-09-12T22:30:58.431Z,15.35
2022-09-12T22:33:24.937Z,15.31
2022-09-12T22:35:51.292Z,15.29
2022-09-12T22:38:17.580Z,15.29
2022-09-12T22:40:43.864Z,15.30
2022-09-12T22:43:10.256Z,15.38
2022-09-12T22:45:36.597Z,15.32
2022-09-12T22:48:06.177Z,15.34
2022-09-12T22:50:35.281Z,15.25
2022-09-12T22:53:01.593Z,15.23
2022-09-12T22:55:27.913Z,15.22
2022-09-12T22:57:54.201Z,15.25
2022-09-12T23:00:20.525Z,15.26
2022-09-12T23:02:46.823Z,15.24
2022-09-12T23:05:13.122Z,15.18
2022-09-12T23:07:39.415Z,15.16
2022-09-12T23:10:06.171Z,15.18
2022-09-12T23:12:32.473Z,15.18
2022-09-12T23:14:59.142Z,15.15
2022-09-12T23:17:25.464Z,15.14
2022-09-12T23:19:51.745Z,15.13
2022-09-12T23:22:18.107Z,15.18
2022-09-12T23:24:44.396Z,15.23
2022-09-12T23:27:10.695Z,15.22
2022-09-12T23:29:36.992Z,15.27
2022-09-12T23:32:04.486Z,15.26
2022-09-12T23:34:30.823Z,15.21
2022-09-12T23:36:57.135Z,15.22
2022-09-12T23:39:23.433Z,15.30
2022-09-12T23:41:50.358Z,15.21
2022-09-12T23:44:16.753Z,15.27
2022-09-12T23:46:43.047Z,15.27
2022-09-12T23:49:09.329Z,15.33
2022-09-12T23:51:35.895Z,15.43
2022-09-12T23:54:02.277Z,15.38
2022-09-12T23:56:28.610Z,15.38
2022-09-12T23:58:54.936Z,15.37
